createdAt,value
2023-05-21T00:02:17.839Z,18.08
2023-05-21T00:04:45.780Z,17.77
2023-05-21T00:07:15.516Z,17.91
2023-05-21T00:09:42.601Z,17.79
2023-05-21T00:12:10.643Z,17.66
2023-05-21T00:14:37.598Z,17.68
2023-05-21T00:17:05.311Z,17.70
2023-05-21T00:19:33.704Z,17.72
2023-05-21T00:22:04.667Z,17.37
2023-05-21T00:24:32.982Z,17.64
2023-05-21T00:27:00.183Z,17.64
2023-05-21T00:29:27.796Z,17.64
2023-05-21T00:31:55.875Z,17.57
2023-05-21T00:34:23.086Z,17.59
2023-05-21T00:36:50.434Z,17.56
2023-05-21T00:39:20.407Z,17.45
2023-05-21T00:41:49.036Z,17.48
2023-05-21T00:44:18.290Z,17.49
2023-05-21T00:46:48.787Z,17.34
2023-05-21T00:49:15.963Z,17.35
2023-05-21T00:51:45.325Z,17.24
2023-05-21T00:54:13.627Z,17.33
2023-05-21T00:56:42.204Z,17.30
2023-05-21T00:59:10.822Z,16.79
2023-05-21T01:01:38.237Z,17.31
2023-05-21T01:04:05.245Z,17.21
2023-05-21T01:06:34.807Z,17.26
2023-05-21T01:09:04.964Z,17.20
2023-05-21T01:11:38.858Z,17.26
2023-05-21T01:14:10.572Z,17.31
2023-05-21T01:16:41.107Z,16.81
2023-05-21T01:19:10.968Z,17.22
2023-05-21T01:21:42.183Z,17.23
2023-05-21T01:24:10.903Z,17.16
2023-05-21T01:26:39.074Z,17.18
2023-05-21T01:29:13.350Z,16.84
2023-05-21T01:31:52.733Z,17.23
2023-05-21T01:34:27.094Z,17.09
2023-05-21T01:37:11.463Z,17.31
2023-05-21T01:39:45.914Z,17.30
2023-05-21T01:42:14.626Z,17.31
2023-05-21T01:44:42.605Z,16.90
2023-05-21T01:47:11.238Z,17.29
2023-05-21T01:49:38.940Z,17.28
2023-05-21T01:52:06.791Z,16.88
2023-05-21T01:54:33.754Z,17.26
2023-05-21T01:57:02.449Z,17.26
2023-05-21T01:59:30.074Z,16.88
2023-05-21T02:01:57.602Z,17.27
2023-05-21T02:04:24.612Z,17.02
2023-05-21T02:06:51.959Z,17.12
2023-05-21T02:09:18.898Z,17.21
2023-05-21T02:11:46.293Z,16.93
2023-05-21T02:14:15.275Z,16.99
2023-05-21T02:16:42.727Z,16.71
2023-05-21T02:19:10.611Z,17.14
2023-05-21T02:21:37.900Z,16.75
2023-05-21T02:24:05.483Z,17.14
2023-05-21T02:26:33.170Z,16.71
2023-05-21T02:29:00.291Z,17.00
2023-05-21T02:31:28.988Z,17.02
2023-05-21T02:33:56.428Z,17.05
2023-05-21T02:36:25.511Z,16.98
2023-05-21T02:38:52.808Z,16.88
2023-05-21T02:41:19.977Z,16.80
2023-05-21T02:43:47.455Z,16.78
2023-05-21T02:46:14.764Z,16.79
2023-05-21T02:48:43.859Z,16.81
2023-05-21T02:51:11.476Z,16.79
2023-05-21T02:53:39.273Z,16.81
2023-05-21T02:56:06.938Z,16.60
2023-05-21T02:58:33.885Z,16.27
2023-05-21T03:01:01.129Z,16.39
2023-05-21T03:03:28.227Z,16.86
2023-05-21T03:05:58.761Z,16.87
2023-05-21T03:08:26.470Z,16.90
2023-05-21T03:10:53.789Z,16.79
2023-05-21T03:13:21.601Z,16.89
2023-05-21T03:15:49.012Z,16.90
2023-05-21T03:18:16.478Z,16.65
2023-05-21T03:20:46.290Z,16.83
2023-05-21T03:23:16.647Z,16.83
2023-05-21T03:25:45.969Z,16.62
2023-05-21T03:28:12.810Z,16.76
2023-05-21T03:30:40.225Z,16.71
2023-05-21T03:33:07.608Z,16.60
2023-05-21T03:35:34.910Z,16.75
2023-05-21T03:38:02.160Z,16.79
2023-05-21T03:40:30.801Z,16.77
2023-05-21T03:42:57.717Z,16.71
2023-05-21T03:45:25.194Z,16.74
2023-05-21T03:47:52.184Z,16.81
2023-05-21T03:50:19.432Z,16.65
2023-05-21T03:52:51.913Z,16.38
2023-05-21T03:55:19.262Z,16.90
2023-05-21T03:57:48.033Z,16.94
2023-05-21T04:00:15.694Z,16.95
2023-05-21T04:02:43.103Z,17.00
2023-05-21T04:05:10.642Z,17.01
2023-05-21T04:07:38.301Z,17.09
2023-05-21T04:10:06.877Z,17.31
2023-05-21T04:12:34.674Z,17.47
2023-05-21T04:15:04.072Z,17.69
2023-05-21T04:17:31.207Z,18.03
2023-05-21T04:19:58.565Z,18.31
2023-05-21T04:22:29.240Z,18.94
2023-05-21T04:24:56.707Z,18.90
2023-05-21T04:27:24.349Z,19.12
2023-05-21T04:29:51.665Z,19.58
2023-05-21T04:32:21.709Z,20.19
2023-05-21T04:34:49.930Z,21.13
2023-05-21T04:37:19.959Z,22.32
2023-05-21T04:39:48.073Z,23.31
2023-05-21T04:42:15.085Z,23.72
2023-05-21T04:44:44.342Z,23.78
2023-05-21T04:47:14.969Z,23.67
2023-05-21T04:49:44.299Z,24.90
2023-05-21T04:52:11.233Z,25.67
2023-05-21T04:54:39.053Z,26.03
2023-05-21T04:57:06.648Z,26.46
2023-05-21T04:59:35.266Z,26.33
2023-05-21T05:02:02.805Z,26.25
2023-05-21T05:04:30.063Z,26.69
2023-05-21T05:06:59.377Z,27.59
2023-05-21T05:09:27.244Z,28.16
2023-05-21T05:11:54.399Z,28.29
2023-05-21T05:14:21.852Z,27.96
2023-05-21T05:16:49.017Z,28.02
2023-05-21T05:19:16.434Z,27.52
2023-05-21T05:21:43.441Z,28.04
2023-05-21T05:24:12.359Z,27.84
2023-05-21T05:26:39.364Z,28.13
2023-05-21T05:29:06.588Z,27.58
2023-05-21T05:31:33.618Z,26.75
2023-05-21T05:34:01.036Z,26.22
2023-05-21T05:36:27.990Z,26.16
2023-05-21T05:38:55.188Z,26.05
2023-05-21T05:41:23.427Z,25.57
2023-05-21T05:43:50.846Z,25.45
2023-05-21T05:46:19.386Z,25.59
2023-05-21T05:48:46.687Z,25.45
2023-05-21T05:51:15.415Z,24.90
2023-05-21T05:53:43.099Z,24.98
2023-05-21T05:56:10.086Z,24.73
2023-05-21T05:58:38.744Z,24.25
2023-05-21T06:01:06.133Z,24.49
2023-05-21T06:03:33.984Z,24.49
2023-05-21T06:06:01.133Z,24.51
2023-05-21T06:08:28.582Z,24.02
2023-05-21T06:10:55.918Z,23.63
2023-05-21T06:13:23.309Z,24.04
2023-05-21T06:15:52.540Z,23.51
2023-05-21T06:18:19.861Z,24.04
2023-05-21T06:20:46.800Z,24.22
2023-05-21T06:23:14.322Z,24.39
2023-05-21T06:25:41.520Z,24.67
2023-05-21T06:28:08.843Z,24.72
2023-05-21T06:30:35.955Z,24.60
2023-05-21T06:33:04.678Z,24.72
2023-05-21T06:35:31.799Z,24.40
2023-05-21T06:37:59.174Z,24.20
2023-05-21T06:40:26.283Z,24.05
2023-05-21T06:42:53.685Z,24.03
2023-05-21T06:45:20.857Z,24.19
2023-05-21T06:47:48.301Z,24.32
2023-05-21T06:50:17.243Z,24.30
2023-05-21T06:52:44.937Z,24.36
2023-05-21T06:55:12.044Z,24.39
2023-05-21T06:57:39.309Z,24.80
2023-05-21T07:00:09.224Z,24.99
2023-05-21T07:02:37.098Z,25.18
2023-05-21T07:05:04.390Z,25.22
2023-05-21T07:07:34.839Z,25.23
2023-05-21T07:10:01.842Z,25.27
2023-05-21T07:12:30.085Z,25.20
2023-05-21T07:14:59.213Z,25.51
2023-05-21T07:17:26.812Z,25.87
2023-05-21T07:19:53.908Z,26.14
2023-05-21T07:22:21.249Z,26.22
2023-05-21T07:24:49.534Z,26.57
2023-05-21T07:27:25.210Z,26.65
2023-05-21T07:29:53.016Z,26.75
2023-05-21T07:32:20.513Z,26.62
2023-05-21T07:34:47.509Z,26.79
2023-05-21T07:37:14.829Z,26.82
2023-05-21T07:39:41.829Z,26.88
2023-05-21T07:42:11.405Z,26.99
2023-05-21T07:44:38.444Z,26.87
2023-05-21T07:47:05.764Z,27.33
2023-05-21T07:49:34.376Z,27.47
2023-05-21T07:52:02.146Z,26.97
2023-05-21T07:54:29.344Z,26.74
2023-05-21T07:56:56.762Z,26.77
2023-05-21T07:59:25.556Z,26.54
2023-05-21T08:01:52.783Z,26.32
2023-05-21T08:04:19.975Z,26.12
2023-05-21T08:06:48.701Z,26.09
2023-05-21T08:09:15.845Z,26.33
2023-05-21T08:11:43.073Z,26.52
2023-05-21T08:14:11.986Z,26.69
2023-05-21T08:16:40.869Z,26.66
2023-05-21T08:19:07.939Z,26.56
2023-05-21T08:21:35.274Z,26.31
2023-05-21T08:24:02.983Z,26.18
2023-05-21T08:26:31.032Z,26.55
2023-05-21T08:28:58.317Z,26.61
2023-05-21T08:31:25.568Z,26.46
2023-05-21T08:33:56.212Z,26.43
2023-05-21T08:36:25.053Z,26.34
2023-05-21T08:38:52.028Z,26.57
2023-05-21T08:41:23.513Z,26.16
2023-05-21T08:43:56.462Z,26.40
2023-05-21T08:46:27.087Z,26.33
2023-05-21T08:48:55.889Z,26.53
2023-05-21T08:51:23.181Z,26.48
2023-05-21T08:53:51.322Z,26.69
2023-05-21T08:56:18.416Z,27.12
2023-05-21T08:58:46.620Z,26.79
2023-05-21T09:01:14.827Z,26.76
2023-05-21T09:03:43.708Z,27.02
2023-05-21T09:06:14.141Z,27.18
2023-05-21T09:08:45.956Z,27.37
2023-05-21T09:11:16.606Z,26.97
2023-05-21T09:13:46.345Z,27.37
2023-05-21T09:16:13.666Z,27.38
2023-05-21T09:18:40.697Z,27.44
2023-05-21T09:24:02.415Z,27.56
2023-05-21T09:26:29.858Z,28.08
2023-05-21T09:28:59.292Z,27.67
2023-05-21T09:31:27.436Z,27.67
2023-05-21T09:33:55.816Z,27.53
2023-05-21T09:36:23.325Z,27.58
2023-05-21T09:38:54.895Z,27.71
2023-05-21T09:41:31.658Z,27.83
2023-05-21T09:44:00.025Z,28.17
2023-05-21T09:46:27.583Z,28.01
2023-05-21T09:48:54.757Z,28.07
2023-05-21T09:51:22.278Z,28.16
2023-05-21T09:53:51.354Z,28.63
2023-05-21T09:56:24.870Z,28.42
2023-05-21T09:58:54.698Z,28.80
2023-05-21T10:01:23.513Z,28.70
2023-05-21T10:03:55.883Z,28.74
2023-05-21T10:06:26.527Z,28.68
2023-05-21T10:09:01.229Z,28.86
2023-05-21T10:11:32.081Z,28.77
2023-05-21T10:14:04.602Z,29.18
2023-05-21T10:16:36.315Z,29.36
2023-05-21T10:19:04.806Z,29.06
2023-05-21T10:21:33.524Z,29.36
2023-05-21T10:24:02.640Z,29.41
2023-05-21T10:26:33.270Z,29.36
2023-05-21T10:29:03.391Z,29.36
2023-05-21T10:31:33.139Z,28.95
2023-05-21T10:34:00.843Z,29.02
2023-05-21T10:36:33.943Z,29.13
2023-05-21T10:39:05.323Z,29.21
2023-05-21T10:41:46.867Z,28.91
2023-05-21T10:44:23.694Z,29.05
2023-05-21T10:47:16.737Z,28.55
2023-05-21T10:50:03.244Z,28.60
2023-05-21T10:52:52.693Z,29.01
2023-05-21T10:55:36.196Z,29.12
2023-05-21T10:58:38.391Z,29.64
2023-05-21T11:01:07.078Z,29.30
2023-05-21T11:03:37.736Z,29.64
2023-05-21T11:06:06.553Z,29.44
2023-05-21T11:08:36.230Z,29.80
2023-05-21T11:11:03.907Z,29.87
2023-05-21T11:13:49.775Z,29.80
2023-05-21T11:16:17.785Z,29.74
2023-05-21T11:18:58.181Z,29.46
2023-05-21T11:21:30.586Z,29.82
2023-05-21T11:24:02.840Z,29.46
2023-05-21T11:26:52.315Z,29.78
2023-05-21T11:29:31.536Z,29.50
2023-05-21T11:32:06.593Z,29.95
2023-05-21T11:34:45.504Z,29.78
2023-05-21T11:37:30.550Z,29.16
2023-05-21T11:40:15.847Z,28.75
2023-05-21T11:42:44.162Z,28.92
2023-05-21T11:45:19.997Z,29.03
2023-05-21T11:47:54.747Z,28.75
2023-05-21T11:50:22.266Z,28.15
2023-05-21T11:52:50.121Z,28.36
2023-05-21T11:55:24.347Z,28.46
2023-05-21T11:57:55.392Z,28.53
2023-05-21T12:00:24.412Z,28.71
2023-05-21T12:02:52.919Z,28.51
2023-05-21T12:05:21.473Z,28.92
2023-05-21T12:07:52.229Z,29.01
2023-05-21T12:10:23.894Z,29.41
2023-05-21T12:12:56.440Z,29.44
2023-05-21T12:15:27.388Z,29.33
2023-05-21T12:17:56.253Z,29.19
2023-05-21T12:20:26.260Z,29.21
2023-05-21T12:22:57.585Z,29.33
2023-05-21T12:25:25.161Z,29.26
2023-05-21T12:27:57.819Z,29.51
2023-05-21T12:30:27.134Z,29.39
2023-05-21T12:32:57.545Z,29.55
2023-05-21T12:35:25.378Z,29.52
2023-05-21T12:37:52.769Z,29.35
2023-05-21T12:40:22.314Z,29.32
2023-05-21T12:42:49.978Z,29.45
2023-05-21T12:45:18.766Z,29.14
2023-05-21T12:47:58.205Z,29.31
2023-05-21T12:50:25.580Z,29.40
2023-05-21T12:52:56.324Z,28.93
2023-05-21T12:55:25.389Z,28.76
2023-05-21T12:58:02.141Z,28.69
2023-05-21T13:00:33.171Z,28.22
2023-05-21T13:03:04.433Z,28.46
2023-05-21T13:05:32.483Z,28.72
2023-05-21T13:07:59.470Z,28.64
2023-05-21T13:10:34.256Z,28.62
2023-05-21T13:13:02.077Z,29.07
2023-05-21T13:15:29.296Z,29.06
2023-05-21T13:17:57.789Z,28.70
2023-05-21T13:20:32.392Z,28.94
2023-05-21T13:22:59.852Z,29.00
2023-05-21T13:25:36.615Z,28.63
2023-05-21T13:28:11.645Z,28.74
2023-05-21T13:30:39.165Z,28.66
2023-05-21T13:33:09.522Z,28.70
2023-05-21T13:35:43.322Z,28.58
2023-05-21T13:38:15.853Z,28.46
2023-05-21T13:40:43.522Z,28.83
2023-05-21T13:43:11.613Z,28.31
2023-05-21T13:45:41.020Z,28.01
2023-05-21T13:48:10.167Z,27.94
2023-05-21T13:50:38.116Z,27.68
2023-05-21T13:53:06.980Z,27.85
2023-05-21T13:55:37.438Z,27.35
2023-05-21T13:58:04.526Z,27.54
2023-05-21T14:00:39.769Z,27.19
2023-05-21T14:03:12.657Z,27.37
2023-05-21T14:05:45.356Z,27.24
2023-05-21T14:08:13.789Z,27.25
2023-05-21T14:10:41.799Z,26.81
2023-05-21T14:13:19.174Z,26.93
2023-05-21T14:15:52.208Z,27.16
2023-05-21T14:18:19.266Z,26.76
2023-05-21T14:20:49.497Z,26.67
2023-05-21T14:23:20.839Z,26.32
2023-05-21T14:25:48.330Z,26.92
2023-05-21T14:28:15.496Z,26.29
2023-05-21T14:30:43.176Z,26.38
2023-05-21T14:33:15.634Z,26.18
2023-05-21T14:35:44.318Z,25.93
2023-05-21T14:38:11.190Z,25.76
2023-05-21T14:40:39.979Z,25.66
2023-05-21T14:43:07.387Z,25.44
2023-05-21T14:45:35.549Z,25.38
2023-05-21T14:48:08.302Z,24.85
2023-05-21T14:50:35.984Z,25.51
2023-05-21T14:53:05.285Z,25.47
2023-05-21T14:55:35.358Z,25.50
2023-05-21T14:58:05.916Z,25.49
2023-05-21T15:00:34.443Z,25.53
2023-05-21T15:03:01.738Z,25.47
2023-05-21T15:05:29.611Z,25.41
2023-05-21T15:07:57.233Z,25.43
2023-05-21T15:10:25.562Z,25.51
2023-05-21T15:12:52.993Z,25.64
2023-05-21T15:15:22.022Z,25.66
2023-05-21T15:17:49.779Z,25.62
2023-05-21T15:20:19.228Z,25.55
2023-05-21T15:22:46.880Z,25.74
2023-05-21T15:25:14.268Z,26.05
2023-05-21T15:27:41.870Z,26.22
2023-05-21T15:30:09.612Z,26.34
2023-05-21T15:32:38.093Z,26.39
2023-05-21T15:35:06.236Z,26.51
2023-05-21T15:37:34.337Z,26.65
2023-05-21T15:40:01.604Z,26.71
2023-05-21T15:42:31.342Z,26.67
2023-05-21T15:44:58.704Z,26.91
2023-05-21T15:47:26.683Z,26.87
2023-05-21T15:49:55.451Z,27.04
2023-05-21T15:52:22.536Z,27.11
2023-05-21T15:54:50.509Z,27.07
2023-05-21T15:57:17.579Z,27.07
2023-05-21T15:59:45.060Z,26.63
2023-05-21T16:02:12.179Z,26.43
2023-05-21T16:04:39.632Z,26.78
2023-05-21T16:07:07.907Z,26.33
2023-05-21T16:09:37.588Z,25.70
2023-05-21T16:12:05.366Z,24.63
2023-05-21T16:14:32.685Z,24.46
2023-05-21T16:16:59.722Z,24.77
2023-05-21T16:19:28.433Z,24.75
2023-05-21T16:21:55.378Z,24.76
2023-05-21T16:24:24.581Z,24.65
2023-05-21T16:26:51.638Z,24.60
2023-05-21T16:29:19.039Z,24.51
2023-05-21T16:31:47.424Z,24.36
2023-05-21T16:34:15.071Z,24.25
2023-05-21T16:36:42.017Z,24.26
2023-05-21T16:39:09.348Z,24.14
2023-05-21T16:41:37.693Z,24.00
2023-05-21T16:44:05.059Z,23.95
2023-05-21T16:46:32.162Z,23.62
2023-05-21T16:48:59.622Z,23.64
2023-05-21T16:51:26.782Z,23.91
2023-05-21T16:53:54.176Z,23.73
2023-05-21T16:56:22.929Z,23.61
2023-05-21T16:58:51.608Z,23.13
2023-05-21T17:01:19.130Z,22.87
2023-05-21T17:03:47.362Z,23.27
2023-05-21T17:06:15.038Z,22.98
2023-05-21T17:08:42.807Z,22.97
2023-05-21T17:11:09.966Z,23.27
2023-05-21T17:13:37.720Z,23.20
2023-05-21T17:16:06.536Z,22.64
2023-05-21T17:18:33.993Z,23.05
2023-05-21T17:21:01.047Z,22.50
2023-05-21T17:23:28.492Z,22.00
2023-05-21T17:25:55.641Z,22.10
2023-05-21T17:28:23.056Z,21.56
2023-05-21T17:30:50.143Z,21.70
2023-05-21T17:33:19.311Z,21.11
2023-05-21T17:35:46.502Z,20.98
2023-05-21T17:38:14.185Z,20.84
2023-05-21T17:40:41.508Z,20.79
2023-05-21T17:43:08.832Z,20.63
2023-05-21T17:45:36.030Z,20.52
2023-05-21T17:48:03.915Z,20.51
2023-05-21T17:50:32.459Z,20.55
2023-05-21T17:52:59.905Z,20.54
2023-05-21T17:55:26.896Z,20.88
2023-05-21T17:57:54.333Z,20.45
2023-05-21T18:00:21.660Z,20.42
2023-05-21T18:02:49.901Z,20.68
2023-05-21T18:05:17.165Z,20.24
2023-05-21T18:07:46.190Z,20.56
2023-05-21T18:10:15.336Z,20.00
2023-05-21T18:12:43.818Z,20.23
2023-05-21T18:15:11.102Z,19.75
2023-05-21T18:17:38.520Z,19.51
2023-05-21T18:20:06.657Z,19.46
2023-05-21T18:22:34.099Z,19.15
2023-05-21T18:25:02.531Z,19.51
2023-05-21T18:27:29.604Z,19.85
2023-05-21T18:29:57.059Z,19.82
2023-05-21T18:32:24.577Z,19.32
2023-05-21T18:34:51.766Z,19.40
2023-05-21T18:37:19.193Z,19.38
2023-05-21T18:39:46.254Z,19.39
2023-05-21T18:42:15.230Z,19.79
2023-05-21T18:44:42.031Z,19.83
2023-05-21T18:47:09.276Z,19.64
2023-05-21T18:49:36.604Z,19.86
2023-05-21T18:52:04.569Z,19.84
2023-05-21T18:54:31.813Z,19.49
2023-05-21T18:57:00.543Z,19.62
2023-05-21T18:59:29.424Z,19.10
2023-05-21T19:01:56.816Z,19.39
2023-05-21T19:04:24.151Z,18.91
2023-05-21T19:06:52.134Z,19.31
2023-05-21T19:09:19.198Z,19.00
2023-05-21T19:11:46.512Z,18.94
2023-05-21T19:14:13.500Z,19.32
2023-05-21T19:16:42.450Z,19.29
2023-05-21T19:19:09.578Z,18.80
2023-05-21T19:21:37.133Z,18.76
2023-05-21T19:24:06.018Z,18.80
2023-05-21T19:26:33.741Z,18.80
2023-05-21T19:29:01.081Z,19.22
2023-05-21T19:31:28.418Z,18.81
2023-05-21T19:33:57.260Z,18.77
2023-05-21T19:36:24.578Z,18.74
2023-05-21T19:38:51.749Z,19.13
2023-05-21T19:41:20.041Z,18.76
2023-05-21T19:43:47.197Z,18.74
2023-05-21T19:46:17.370Z,19.03
2023-05-21T19:48:46.966Z,18.65
2023-05-21T19:51:16.257Z,18.99
2023-05-21T19:53:43.266Z,18.95
2023-05-21T19:56:10.597Z,18.69
2023-05-21T19:58:37.655Z,18.40
2023-05-21T20:01:05.941Z,18.33
2023-05-21T20:03:35.934Z,18.66
2023-05-21T20:06:03.858Z,18.22
2023-05-21T20:08:32.470Z,18.26
2023-05-21T20:11:00.817Z,18.41
2023-05-21T20:13:27.850Z,18.05
2023-05-21T20:15:55.153Z,18.33
2023-05-21T20:18:22.369Z,18.30
2023-05-21T20:20:49.754Z,17.75
2023-05-21T20:23:17.017Z,17.79
2023-05-21T20:25:45.679Z,17.92
2023-05-21T20:28:12.806Z,18.29
2023-05-21T20:30:52.748Z,18.25
2023-05-21T20:33:20.451Z,17.74
2023-05-21T20:35:47.888Z,17.70
2023-05-21T20:38:15.902Z,17.63
2023-05-21T20:40:45.488Z,17.74
2023-05-21T20:43:13.647Z,17.54
2023-05-21T20:45:41.798Z,17.90
2023-05-21T20:48:09.847Z,17.39
2023-05-21T20:50:41.790Z,17.43
2023-05-21T20:53:09.125Z,17.47
2023-05-21T20:55:37.081Z,17.94
2023-05-21T20:58:05.702Z,17.93
2023-05-21T21:00:33.506Z,17.88
2023-05-21T21:03:02.010Z,17.96
2023-05-21T21:05:29.456Z,17.56
2023-05-21T21:07:56.450Z,17.19
2023-05-21T21:10:23.728Z,17.71
2023-05-21T21:12:50.682Z,17.93
2023-05-21T21:15:19.680Z,17.77
2023-05-21T21:17:46.789Z,17.75
2023-05-21T21:20:17.370Z,17.70
2023-05-21T21:22:44.655Z,17.19
2023-05-21T21:25:13.676Z,17.41
2023-05-21T21:27:40.875Z,17.11
2023-05-21T21:30:09.169Z,17.05
2023-05-21T21:32:38.078Z,17.32
2023-05-21T21:35:06.333Z,16.76
2023-05-21T21:37:33.446Z,17.13
2023-05-21T21:40:00.754Z,17.07
2023-05-21T21:42:28.176Z,16.61
2023-05-21T21:44:55.595Z,16.70
2023-05-21T21:47:22.785Z,17.05
2023-05-21T21:49:51.576Z,16.48
2023-05-21T21:52:19.014Z,16.55
2023-05-21T21:54:46.413Z,16.47
2023-05-21T21:57:13.624Z,16.87
2023-05-21T21:59:40.868Z,16.43
2023-05-21T22:02:07.879Z,16.63
2023-05-21T22:04:35.427Z,16.15
2023-05-21T22:07:03.897Z,16.65
2023-05-21T22:09:31.218Z,16.59
2023-05-21T22:11:58.685Z,16.15
2023-05-21T22:14:29.343Z,16.11
2023-05-21T22:16:58.949Z,16.09
2023-05-21T22:19:26.723Z,16.01
2023-05-21T22:21:59.783Z,16.10
2023-05-21T22:24:32.467Z,15.93
2023-05-21T22:27:00.539Z,16.32
2023-05-21T22:29:27.941Z,16.44
2023-05-21T22:31:55.114Z,15.95
2023-05-21T22:34:27.235Z,16.44
2023-05-21T22:36:54.326Z,16.01
2023-05-21T22:39:21.601Z,15.92
2023-05-21T22:41:50.048Z,16.36
2023-05-21T22:44:17.618Z,15.81
2023-05-21T22:46:44.945Z,16.28
2023-05-21T22:49:12.475Z,16.24
2023-05-21T22:51:39.617Z,15.85
2023-05-21T22:54:06.861Z,15.78
2023-05-21T22:56:34.268Z,15.54
2023-05-21T22:59:02.894Z,16.08
2023-05-21T23:01:30.101Z,15.68
2023-05-21T23:03:57.623Z,16.04
2023-05-21T23:06:24.673Z,15.59
2023-05-21T23:08:51.895Z,15.49
2023-05-21T23:11:18.978Z,15.19
2023-05-21T23:13:46.238Z,15.91
2023-05-21T23:16:14.677Z,15.66
2023-05-21T23:18:41.963Z,15.84
2023-05-21T23:21:09.388Z,15.86
2023-05-21T23:23:36.724Z,15.83
2023-05-21T23:26:03.768Z,15.77
2023-05-21T23:28:31.371Z,15.70
2023-05-21T23:30:58.494Z,15.20
2023-05-21T23:33:28.440Z,15.12
2023-05-21T23:35:55.433Z,15.17
2023-05-21T23:38:22.685Z,15.62
2023-05-21T23:40:49.979Z,15.17
2023-05-21T23:43:17.562Z,15.11
2023-05-21T23:45:44.869Z,14.96
2023-05-21T23:48:12.224Z,15.46
2023-05-21T23:50:41.034Z,15.46
2023-05-21T23:53:08.785Z,14.80
2023-05-21T23:55:36.504Z,14.83
2023-05-21T23:58:04.259Z,14.77
